Time;durP1;ratioP1;P1;durP2;ratioP2;P2;SDS_P1;SDS_P2;PMS_P1;PMS_P2;Temp;Humidity;BMP_temperature;BMP_pressure;BME280_temperature;BME280_humidity;BME280_pressure;Samples;Min_cycle;Max_cycle;Signal;HPM_P1;HPM_P2
2022/10/27 00:00:34;;;;;;;1.63;0.90;;;14.10;99.90;;;;;;5099518;28;20947;-71
2022/10/27 00:03:01;;;;;;;3.27;0.90;;;14.10;99.90;;;;;;5099333;28;20499;-71
2022/10/27 00:05:28;;;;;;;1.50;0.80;;;14.10;99.90;;;;;;5098918;28;20696;-71
2022/10/27 00:07:55;;;;;;;1.73;0.80;;;14.10;99.90;;;;;;5097825;28;20529;-72
2022/10/27 00:10:22;;;;;;;2.17;0.97;;;14.10;99.90;;;;;;5099356;28;20544;-71
2022/10/27 00:12:49;;;;;;;4.47;0.83;;;14.00;99.90;;;;;;5100180;28;20481;-72
2022/10/27 00:15:16;;;;;;;2.80;0.80;;;14.00;99.90;;;;;;5099947;28;20457;-71
2022/10/27 00:17:44;;;;;;;1.30;0.70;;;14.00;99.90;;;;;;5099963;28;20477;-71
2022/10/27 00:20:11;;;;;;;1.40;0.80;;;14.00;99.90;;;;;;5099878;28;20936;-71
2022/10/27 00:22:38;;;;;;;6.57;1.00;;;13.90;99.90;;;;;;5102656;28;20462;-71
2022/10/27 00:25:06;;;;;;;1.40;0.80;;;13.90;99.90;;;;;;5111322;28;20885;-72
2022/10/27 00:27:33;;;;;;;3.17;1.67;;;13.90;99.90;;;;;;5103033;28;20499;-71
2022/10/27 00:30:00;;;;;;;3.57;0.90;;;13.90;99.90;;;;;;5101593;28;20496;-71
2022/10/27 00:32:26;;;;;;;1.80;0.80;;;13.90;99.90;;;;;;5100483;28;20849;-71
2022/10/27 00:34:55;;;;;;;3.17;1.07;;;13.90;99.90;;;;;;5099859;28;20928;-71
2022/10/27 00:37:21;;;;;;;3.57;1.20;;;13.90;99.90;;;;;;5098572;28;20786;-71
2022/10/27 00:39:48;;;;;;;2.30;0.97;;;13.80;99.90;;;;;;5098786;28;20957;-71
2022/10/27 00:42:16;;;;;;;2.37;0.97;;;13.80;99.90;;;;;;5097966;28;20469;-71
2022/10/27 00:44:45;;;;;;;1.80;1.10;;;13.80;99.90;;;;;;5098774;28;20536;-72
2022/10/27 00:47:23;;;;;;;1.90;0.97;;;13.80;99.90;;;;;;5098316;28;20473;-69
2022/10/27 00:49:57;;;;;;;1.87;1.00;;;13.80;99.90;;;;;;5098282;28;20488;-71
2022/10/27 00:52:30;;;;;;;2.37;1.03;;;13.80;99.90;;;;;;5098716;28;20576;-70
2022/10/27 00:55:00;;;;;;;1.63;0.97;;;13.80;99.90;;;;;;5098107;28;20936;-70
2022/10/27 00:57:29;;;;;;;1.97;0.80;;;13.80;99.90;;;;;;5098920;28;20541;-70
2022/10/27 00:59:56;;;;;;;3.03;1.00;;;13.80;99.90;;;;;;5098633;28;20543;-71
2022/10/27 01:02:23;;;;;;;3.07;1.00;;;13.80;99.90;;;;;;5098210;28;20462;-70
2022/10/27 01:04:57;;;;;;;1.60;0.80;;;13.70;99.90;;;;;;5097984;28;20484;-70
2022/10/27 01:07:24;;;;;;;3.60;0.90;;;13.70;99.90;;;;;;5097831;28;20485;-70
2022/10/27 01:09:52;;;;;;;1.50;0.80;;;13.60;99.90;;;;;;5097523;28;20460;-71
2022/10/27 01:12:19;;;;;;;2.90;1.00;;;13.60;99.90;;;;;;5097912;28;20942;-71
2022/10/27 01:14:46;;;;;;;4.87;0.90;;;13.60;99.90;;;;;;5097888;28;20473;-71
2022/10/27 01:17:24;;;;;;;3.20;0.80;;;13.50;99.90;;;;;;5098094;28;20536;-70
2022/10/27 01:20:35;;;;;;;2.50;0.83;;;13.60;99.90;;;;;;5097432;28;20484;-71
2022/10/27 01:23:08;;;;;;;1.53;0.73;;;13.50;99.90;;;;;;5097490;28;20438;-70
2022/10/27 01:26:01;;;;;;;3.60;1.00;;;13.40;99.90;;;;;;5097856;28;20575;-70
2022/10/27 01:28:54;;;;;;;1.50;0.90;;;13.40;99.90;;;;;;5097744;28;20529;-70
2022/10/27 01:31:26;;;;;;;2.13;0.80;;;13.40;99.90;;;;;;5097607;28;20493;-71
2022/10/27 01:34:02;;;;;;;7.03;0.83;;;13.40;99.90;;;;;;5097161;28;20883;-70
2022/10/27 01:36:35;;;;;;;3.90;0.73;;;13.40;99.90;;;;;;5097885;28;20532;-71
2022/10/27 01:39:10;;;;;;;1.37;0.80;;;13.30;99.90;;;;;;5097328;28;20477;-71
2022/10/27 01:41:43;;;;;;;1.50;0.73;;;13.40;99.90;;;;;;5097552;28;20481;-71
2022/10/27 01:44:18;;;;;;;1.27;0.67;;;13.30;99.90;;;;;;5097697;28;20488;-71
2022/10/27 01:46:47;;;;;;;1.40;0.80;;;13.30;99.90;;;;;;5096700;28;20473;-70
2022/10/27 01:49:14;;;;;;;1.37;0.83;;;13.30;99.90;;;;;;5096721;28;20528;-71
2022/10/27 01:51:41;;;;;;;2.13;0.90;;;13.30;99.90;;;;;;5097352;28;20481;-69
2022/10/27 01:54:08;;;;;;;3.07;0.90;;;13.30;99.90;;;;;;5096552;28;21110;-70
2022/10/27 01:56:47;;;;;;;2.30;0.97;;;13.30;99.90;;;;;;5096758;28;20544;-70
2022/10/27 01:59:26;;;;;;;6.10;0.90;;;13.30;99.90;;;;;;5096756;28;20920;-70
2022/10/27 02:02:05;;;;;;;1.20;0.77;;;13.30;99.90;;;;;;5096623;28;20492;-70
2022/10/27 02:04:40;;;;;;;1.93;0.90;;;13.30;99.90;;;;;;5096863;28;20533;-70
2022/10/27 02:07:14;;;;;;;1.40;0.83;;;13.30;99.90;;;;;;5097041;28;20936;-70
2022/10/27 02:09:45;;;;;;;1.40;0.80;;;13.30;99.90;;;;;;5096619;28;20460;-70
2022/10/27 02:12:19;;;;;;;1.73;0.90;;;13.30;99.90;;;;;;5096783;28;20505;-70
2022/10/27 02:14:49;;;;;;;1.37;0.80;;;13.30;99.90;;;;;;5096707;28;20499;-70
2022/10/27 02:17:19;;;;;;;2.60;0.83;;;13.30;99.90;;;;;;5095680;28;20525;-70
2022/10/27 02:19:49;;;;;;;1.77;0.73;;;13.30;99.90;;;;;;5094193;28;20572;-70
2022/10/27 02:22:16;;;;;;;2.13;0.93;;;13.20;99.90;;;;;;5095190;28;20914;-70
2022/10/27 02:24:43;;;;;;;3.87;0.80;;;13.10;99.90;;;;;;5096211;28;20916;-70
2022/10/27 02:27:15;;;;;;;1.43;0.87;;;13.10;99.90;;;;;;5096204;28;20541;-69
2022/10/27 02:29:45;;;;;;;2.30;0.90;;;13.10;99.90;;;;;;5094798;28;20549;-71
2022/10/27 02:32:16;;;;;;;2.00;0.90;;;13.10;99.90;;;;;;5095155;28;20520;-70
2022/10/27 02:34:47;;;;;;;2.37;1.00;;;13.10;99.90;;;;;;5094619;28;20489;-70
2022/10/27 02:37:19;;;;;;;2.90;0.90;;;13.10;99.90;;;;;;5094173;28;20445;-70
2022/10/27 02:39:47;;;;;;;2.80;1.47;;;13.10;99.90;;;;;;5094759;28;20449;-70
2022/10/27 02:42:14;;;;;;;3.67;0.90;;;13.10;99.90;;;;;;5095275;28;20831;-71
2022/10/27 02:44:41;;;;;;;4.37;1.07;;;13.10;99.90;;;;;;5095426;28;20461;-70
2022/10/27 02:47:08;;;;;;;2.00;0.83;;;13.10;99.90;;;;;;5096869;28;20536;-70
2022/10/27 02:49:34;;;;;;;4.20;1.17;;;13.10;99.90;;;;;;5095224;28;20900;-70
2022/10/27 02:52:03;;;;;;;3.40;1.30;;;13.00;99.90;;;;;;5095126;28;20558;-71
2022/10/27 02:54:30;;;;;;;1.87;1.03;;;12.90;99.90;;;;;;5094691;28;20445;-70
2022/10/27 02:56:57;;;;;;;3.30;1.10;;;12.80;99.90;;;;;;5095006;28;20441;-70
2022/10/27 02:59:24;;;;;;;1.50;0.90;;;12.80;99.90;;;;;;5094872;28;20552;-70
2022/10/27 03:01:51;;;;;;;1.93;1.00;;;12.90;99.90;;;;;;5094437;28;20536;-70
2022/10/27 03:04:18;;;;;;;2.00;1.00;;;12.90;99.90;;;;;;5095453;28;20536;-71
2022/10/27 03:06:45;;;;;;;5.33;1.30;;;12.90;99.90;;;;;;5095522;28;20863;-70
2022/10/27 03:09:13;;;;;;;1.53;0.90;;;12.90;99.90;;;;;;5095760;28;20493;-71
2022/10/27 03:11:40;;;;;;;2.03;1.10;;;12.90;99.90;;;;;;5095291;28;20473;-71
2022/10/27 03:14:07;;;;;;;4.97;1.00;;;12.90;99.90;;;;;;5095214;28;20445;-71
2022/10/27 03:16:34;;;;;;;3.07;1.10;;;12.90;99.90;;;;;;5094526;28;20492;-70
2022/10/27 03:19:01;;;;;;;1.30;0.90;;;12.90;99.90;;;;;;5094442;28;20568;-71
2022/10/27 03:21:28;;;;;;;2.37;1.00;;;12.90;99.90;;;;;;5094556;28;20497;-71
2022/10/27 03:23:54;;;;;;;1.93;0.90;;;12.90;99.90;;;;;;5095131;28;20523;-71
2022/10/27 03:26:23;;;;;;;1.77;0.90;;;12.90;99.90;;;;;;5094602;28;20532;-70
2022/10/27 03:28:50;;;;;;;1.30;0.97;;;12.90;99.90;;;;;;5095130;28;20823;-70
2022/10/27 03:31:16;;;;;;;2.37;0.90;;;12.80;99.90;;;;;;5096031;28;20496;-71
2022/10/27 03:33:43;;;;;;;2.67;0.90;;;12.80;99.90;;;;;;5099784;28;20488;-73
2022/10/27 03:36:12;;;;;;;1.30;0.80;;;12.80;99.90;;;;;;5099459;28;20497;-70
2022/10/27 03:38:40;;;;;;;3.40;0.90;;;12.80;99.90;;;;;;5099891;28;20464;-71
2022/10/27 03:41:06;;;;;;;2.47;1.07;;;12.80;99.90;;;;;;5099990;28;20489;-71
2022/10/27 03:43:35;;;;;;;4.97;0.93;;;12.90;99.90;;;;;;5100145;28;20527;-70
2022/10/27 03:46:02;;;;;;;3.00;1.20;;;12.80;99.90;;;;;;5099729;28;20453;-70
2022/10/27 03:48:28;;;;;;;1.90;0.77;;;12.70;99.90;;;;;;5099742;28;20524;-71
2022/10/27 03:50:55;;;;;;;3.20;0.93;;;12.70;99.90;;;;;;5099715;28;20838;-70
2022/10/27 03:53:22;;;;;;;1.20;0.90;;;12.70;99.90;;;;;;5098493;28;21004;-70
2022/10/27 03:55:49;;;;;;;1.30;0.93;;;12.60;99.90;;;;;;5099818;28;20888;-70
2022/10/27 03:58:17;;;;;;;1.27;0.80;;;12.60;99.90;;;;;;5099358;28;20452;-70
2022/10/27 04:00:46;;;;;;;2.50;1.00;;;12.60;99.90;;;;;;5099148;28;20457;-70
2022/10/27 04:03:14;;;;;;;1.20;0.90;;;12.70;99.90;;;;;;5098741;28;20890;-71
2022/10/27 04:05:40;;;;;;;1.60;0.93;;;12.60;99.90;;;;;;5098628;28;20453;-70
2022/10/27 04:08:07;;;;;;;1.60;0.73;;;12.60;99.90;;;;;;5098968;28;20539;-70
2022/10/27 04:10:34;;;;;;;2.10;0.80;;;12.70;99.90;;;;;;5099034;28;20537;-70
2022/10/27 04:13:01;;;;;;;2.93;1.00;;;12.70;99.90;;;;;;5098281;28;20517;-70
2022/10/27 04:15:29;;;;;;;1.93;0.70;;;12.70;99.90;;;;;;5097886;28;20488;-71
2022/10/27 04:17:59;;;;;;;3.77;1.10;;;12.70;99.90;;;;;;5098511;28;20759;-70
2022/10/27 04:20:27;;;;;;;1.60;1.00;;;12.70;99.90;;;;;;5097591;28;20572;-70
2022/10/27 04:22:55;;;;;;;1.30;0.90;;;12.70;99.90;;;;;;5097741;28;20820;-71
2022/10/27 04:25:22;;;;;;;2.40;1.00;;;12.70;99.90;;;;;;5097295;28;20496;-71
2022/10/27 04:27:49;;;;;;;3.73;0.87;;;12.70;99.90;;;;;;5097346;28;20446;-70
2022/10/27 04:30:16;;;;;;;4.80;0.83;;;12.60;99.90;;;;;;5097450;28;20548;-70
2022/10/27 04:32:42;;;;;;;4.53;1.53;;;12.60;99.90;;;;;;5096810;28;20580;-69
2022/10/27 04:35:11;;;;;;;2.20;1.03;;;12.60;99.90;;;;;;5098313;28;20454;-70
2022/10/27 04:37:38;;;;;;;4.80;1.03;;;12.60;99.90;;;;;;5097842;28;20533;-70
2022/10/27 04:40:05;;;;;;;1.33;0.87;;;12.60;99.90;;;;;;5098684;28;20552;-70
2022/10/27 04:42:32;;;;;;;2.77;1.00;;;12.60;99.90;;;;;;5098490;28;20525;-70
2022/10/27 04:44:59;;;;;;;2.83;1.03;;;12.60;99.90;;;;;;5097715;28;20461;-70
2022/10/27 04:47:26;;;;;;;1.90;1.30;;;12.60;99.90;;;;;;5098091;28;20495;-71
2022/10/27 04:49:53;;;;;;;2.60;0.93;;;12.60;99.90;;;;;;5097702;28;20827;-70
2022/10/27 04:52:21;;;;;;;4.80;1.00;;;12.50;99.90;;;;;;5098502;28;21024;-70
2022/10/27 04:54:48;;;;;;;2.03;0.90;;;12.40;99.90;;;;;;5097910;28;20540;-70
2022/10/27 04:57:15;;;;;;;1.70;1.03;;;12.20;99.90;;;;;;5098896;28;20517;-70
2022/10/27 04:59:41;;;;;;;2.40;1.10;;;12.20;99.90;;;;;;5096078;28;20549;-70
2022/10/27 05:02:08;;;;;;;1.30;0.90;;;12.30;99.90;;;;;;5097146;28;20459;-70
2022/10/27 05:04:35;;;;;;;1.67;0.90;;;12.30;99.90;;;;;;5097378;28;20485;-71
2022/10/27 05:07:02;;;;;;;2.13;1.03;;;12.30;99.90;;;;;;5096557;28;20446;-71
2022/10/27 05:09:30;;;;;;;2.70;1.10;;;12.30;99.90;;;;;;5097912;28;20485;-70
2022/10/27 05:11:57;;;;;;;2.60;1.00;;;12.30;99.90;;;;;;5096986;28;20472;-70
2022/10/27 05:14:24;;;;;;;2.60;1.10;;;12.30;99.90;;;;;;5095700;28;20891;-70
2022/10/27 05:16:52;;;;;;;2.70;1.00;;;12.30;99.90;;;;;;5096631;28;20449;-70
2022/10/27 05:19:18;;;;;;;3.80;1.20;;;12.50;99.90;;;;;;5097445;28;20556;-71
2022/10/27 05:21:45;;;;;;;2.13;1.00;;;12.50;99.90;;;;;;5097424;28;20450;-71
2022/10/27 05:24:12;;;;;;;2.57;1.07;;;12.50;99.90;;;;;;5095906;28;20524;-72
2022/10/27 05:26:40;;;;;;;2.10;0.80;;;12.50;99.90;;;;;;5096471;28;20532;-71
2022/10/27 05:29:07;;;;;;;1.63;0.90;;;12.50;99.90;;;;;;5097481;28;20468;-71
2022/10/27 05:31:34;;;;;;;1.73;0.93;;;12.50;99.90;;;;;;5094993;28;20528;-71
2022/10/27 05:34:01;;;;;;;1.80;1.10;;;12.40;99.90;;;;;;5096951;28;20569;-71
2022/10/27 05:36:28;;;;;;;1.50;1.03;;;12.40;99.90;;;;;;5096063;28;20841;-71
2022/10/27 05:38:55;;;;;;;1.30;0.90;;;12.50;99.90;;;;;;5096596;28;20532;-71
2022/10/27 05:41:22;;;;;;;4.60;1.20;;;12.50;99.90;;;;;;5093500;28;20454;-71
2022/10/27 05:43:50;;;;;;;3.53;1.60;;;12.50;99.90;;;;;;5094062;28;20448;-71
2022/10/27 05:46:17;;;;;;;1.90;1.23;;;12.50;99.90;;;;;;5093711;28;20481;-71
2022/10/27 05:48:44;;;;;;;1.60;0.90;;;12.50;99.90;;;;;;5093825;28;20556;-71
2022/10/27 05:58:05;;;;;;;1.70;1.30;;;12.50;99.90;;;;;;5088292;28;20734;-71
2022/10/27 06:00:36;;;;;;;4.93;1.20;;;12.50;99.90;;;;;;5095637;28;20447;-71
2022/10/27 06:03:05;;;;;;;2.73;1.50;;;12.50;99.90;;;;;;5095946;28;20442;-70
2022/10/27 06:05:35;;;;;;;7.53;1.53;;;12.60;99.90;;;;;;5095766;28;20453;-70
2022/10/27 06:08:02;;;;;;;3.00;1.30;;;12.60;99.90;;;;;;5095812;28;20485;-70
2022/10/27 06:10:29;;;;;;;3.03;1.67;;;12.60;99.90;;;;;;5095967;28;20433;-70
2022/10/27 06:13:01;;;;;;;4.10;1.97;;;12.70;99.90;;;;;;5096633;28;20580;-71
2022/10/27 06:15:28;;;;;;;2.17;1.40;;;12.70;99.90;;;;;;5097050;28;20465;-70
2022/10/27 06:17:56;;;;;;;3.30;1.50;;;12.70;99.90;;;;;;5095450;28;20453;-70
2022/10/27 06:20:23;;;;;;;5.50;1.47;;;12.80;99.90;;;;;;5094624;28;20604;-71
2022/10/27 06:22:50;;;;;;;2.33;1.60;;;12.80;99.90;;;;;;5095422;28;20464;-71
2022/10/27 06:25:17;;;;;;;2.27;1.30;;;12.80;99.90;;;;;;5095785;28;20458;-68
2022/10/27 06:27:44;;;;;;;4.37;1.73;;;12.70;99.90;;;;;;5094124;28;20775;-70
2022/10/27 06:30:11;;;;;;;3.13;1.37;;;12.70;99.90;;;;;;5093948;28;20438;-72
2022/10/27 06:32:38;;;;;;;4.80;1.20;;;12.70;99.90;;;;;;5093921;28;20489;-71
2022/10/27 06:35:08;;;;;;;4.13;2.27;;;12.70;99.90;;;;;;5095359;28;20457;-71
2022/10/27 06:37:38;;;;;;;3.30;1.33;;;12.60;99.90;;;;;;5095382;28;20905;-70
2022/10/27 06:40:07;;;;;;;3.33;1.20;;;12.60;99.90;;;;;;5095349;28;20556;-70
2022/10/27 06:42:36;;;;;;;1.83;1.20;;;12.70;99.90;;;;;;5095530;28;20445;-71
2022/10/27 06:45:03;;;;;;;2.90;1.67;;;12.70;99.90;;;;;;5095691;28;20461;-72
2022/10/27 06:47:31;;;;;;;4.53;1.80;;;12.70;99.90;;;;;;5096641;28;20450;-72
2022/10/27 06:49:58;;;;;;;3.70;1.30;;;12.70;99.90;;;;;;5095093;28;20441;-71
2022/10/27 06:52:27;;;;;;;4.83;1.70;;;12.70;99.90;;;;;;5095890;28;20453;-72
2022/10/27 06:54:54;;;;;;;2.10;1.40;;;12.70;99.90;;;;;;5095156;28;20453;-72
2022/10/27 06:57:21;;;;;;;3.53;1.50;;;12.60;99.90;;;;;;5094233;28;20943;-72
2022/10/27 06:59:48;;;;;;;2.30;1.40;;;12.60;99.90;;;;;;5094453;28;20918;-72
2022/10/27 07:02:15;;;;;;;5.30;1.40;;;12.60;99.90;;;;;;5095765;28;20445;-69
2022/10/27 07:04:42;;;;;;;2.17;1.30;;;12.50;99.90;;;;;;5094737;28;21011;-71
2022/10/27 07:07:09;;;;;;;4.10;1.60;;;12.40;99.90;;;;;;5096519;28;20935;-72
2022/10/27 07:09:37;;;;;;;5.77;1.60;;;12.40;99.90;;;;;;5099404;28;20469;-70
2022/10/27 07:12:04;;;;;;;2.90;1.33;;;12.40;99.90;;;;;;5099820;28;20719;-70
2022/10/27 07:14:31;;;;;;;4.37;1.63;;;12.40;99.90;;;;;;5098780;28;20481;-73
2022/10/27 07:16:58;;;;;;;3.93;2.37;;;12.50;99.90;;;;;;5098987;28;20502;-70
2022/10/27 07:19:25;;;;;;;3.20;1.40;;;12.60;99.90;;;;;;5098305;28;20481;-71
2022/10/27 07:21:52;;;;;;;3.87;1.40;;;12.70;99.90;;;;;;5099940;28;20476;-72
2022/10/27 07:24:19;;;;;;;1.80;1.30;;;12.80;99.90;;;;;;5100589;28;20456;-72
2022/10/27 07:26:48;;;;;;;3.97;1.43;;;12.90;99.90;;;;;;5119682;28;20436;-71
2022/10/27 07:29:15;;;;;;;3.60;1.00;;;13.00;99.90;;;;;;5115327;28;20505;-71
2022/10/27 07:31:44;;;;;;;4.60;1.73;;;13.20;99.90;;;;;;5116069;28;20437;-71
2022/10/27 07:34:11;;;;;;;2.90;1.50;;;13.30;99.90;;;;;;5120060;28;20515;-72
2022/10/27 07:36:38;;;;;;;1.80;1.30;;;13.50;99.90;;;;;;5101927;28;20457;-72
2022/10/27 07:39:06;;;;;;;2.20;1.20;;;13.50;99.90;;;;;;5098495;28;20470;-72
2022/10/27 07:41:33;;;;;;;2.83;1.40;;;13.60;99.90;;;;;;5099205;28;20437;-72
2022/10/27 07:44:01;;;;;;;3.70;1.20;;;13.60;99.90;;;;;;5098598;28;20464;-72
2022/10/27 07:46:29;;;;;;;2.10;1.13;;;13.70;99.90;;;;;;5097934;28;20441;-71
2022/10/27 07:48:56;;;;;;;5.80;1.10;;;13.80;99.90;;;;;;5098508;28;20916;-71
2022/10/27 07:51:23;;;;;;;1.90;1.00;;;13.90;99.90;;;;;;5097168;28;20869;-70
2022/10/27 07:53:50;;;;;;;3.20;1.20;;;13.90;99.90;;;;;;5096914;28;20538;-71
2022/10/27 07:56:17;;;;;;;5.23;1.20;;;14.00;99.90;;;;;;5097444;28;20454;-71
2022/10/27 07:58:47;;;;;;;2.43;1.00;;;14.10;99.90;;;;;;5104241;28;20518;-71
2022/10/27 08:01:17;;;;;;;2.43;1.00;;;14.20;99.90;;;;;;5103844;28;20445;-71
2022/10/27 08:03:45;;;;;;;2.23;1.17;;;14.40;99.90;;;;;;5098801;28;20514;-71
2022/10/27 08:06:12;;;;;;;2.20;0.90;;;14.70;99.90;;;;;;5104474;28;20448;-71
2022/10/27 08:08:39;;;;;;;2.83;1.00;;;14.70;99.90;;;;;;5116501;28;20911;-70
2022/10/27 08:11:06;;;;;;;2.50;1.10;;;14.80;99.90;;;;;;5102104;28;20544;-70
2022/10/27 08:13:33;;;;;;;5.37;1.30;;;14.80;99.90;;;;;;5106061;28;21004;-71
2022/10/27 08:16:00;;;;;;;2.63;1.10;;;14.80;99.90;;;;;;5102529;28;20950;-71
2022/10/27 08:18:28;;;;;;;5.80;1.17;;;14.90;99.90;;;;;;5103935;28;20456;-72
2022/10/27 08:20:57;;;;;;;2.13;1.00;;;15.00;99.90;;;;;;5106853;28;20450;-70
2022/10/27 08:23:24;;;;;;;2.53;1.37;;;15.00;99.90;;;;;;5107896;28;20478;-70
2022/10/27 08:25:52;;;;;;;4.57;1.27;;;15.10;99.90;;;;;;5097786;28;20433;-70
2022/10/27 08:28:19;;;;;;;4.23;1.20;;;15.20;99.90;;;;;;5097614;28;20445;-72
2022/10/27 08:30:46;;;;;;;2.80;1.20;;;15.20;99.90;;;;;;5098235;28;20457;-72
2022/10/27 08:33:13;;;;;;;3.27;1.30;;;15.10;99.90;;;;;;5115220;28;20480;-71
2022/10/27 08:35:42;;;;;;;2.83;1.40;;;15.10;99.90;;;;;;5110292;28;20531;-71
2022/10/27 08:38:13;;;;;;;2.77;1.30;;;15.10;99.90;;;;;;5101458;28;20503;-71
2022/10/27 08:40:55;;;;;;;6.37;1.93;;;15.10;99.90;;;;;;5097163;28;20446;-70
2022/10/27 08:43:48;;;;;;;2.47;1.77;;;15.20;99.90;;;;;;5096460;28;20497;-72
2022/10/27 08:46:25;;;;;;;3.20;1.50;;;15.30;99.90;;;;;;5109304;28;20510;-71
2022/10/27 08:48:55;;;;;;;2.47;1.70;;;15.30;99.90;;;;;;5113363;28;20842;-71
2022/10/27 08:51:26;;;;;;;3.20;1.20;;;15.40;99.90;;;;;;5096925;28;20453;-70
2022/10/27 08:53:54;;;;;;;1.80;1.20;;;15.40;99.90;;;;;;5096857;28;20962;-70
2022/10/27 08:56:26;;;;;;;2.50;1.57;;;15.50;99.90;;;;;;5105032;28;20514;-70
2022/10/27 08:58:55;;;;;;;2.87;1.37;;;15.60;99.90;;;;;;5110735;28;20896;-70
2022/10/27 09:01:30;;;;;;;2.47;1.00;;;15.70;99.90;;;;;;5102683;28;20540;-70
2022/10/27 09:04:18;;;;;;;3.83;1.20;;;15.80;99.90;;;;;;5105032;28;20892;-71
2022/10/27 09:06:59;;;;;;;2.07;1.07;;;15.90;99.90;;;;;;5104350;28;20450;-70
2022/10/27 09:09:33;;;;;;;3.03;1.00;;;16.00;99.90;;;;;;5105474;28;20909;-72
2022/10/27 09:12:14;;;;;;;8.03;1.43;;;16.20;99.90;;;;;;5101236;28;20517;-70
2022/10/27 09:15:02;;;;;;;3.43;1.00;;;16.30;99.90;;;;;;5117045;28;20491;-72
2022/10/27 09:17:35;;;;;;;2.17;0.90;;;16.40;99.90;;;;;;5103220;28;20453;-71
2022/10/27 09:20:09;;;;;;;2.03;0.90;;;16.50;99.90;;;;;;5109582;28;20485;-71
2022/10/27 09:22:41;;;;;;;1.70;0.70;;;16.60;99.30;;;;;;5110209;28;20506;-72
2022/10/27 09:25:16;;;;;;;4.17;0.80;;;16.70;87.00;;;;;;5105749;28;20456;-72
2022/10/27 09:27:45;;;;;;;2.47;0.83;;;16.80;70.30;;;;;;5103691;28;20892;-72
2022/10/27 09:30:14;;;;;;;2.40;0.60;;;17.00;40.90;;;;;;5097618;28;20449;-72
2022/10/27 09:32:42;;;;;;;1.07;0.90;;;17.10;28.20;;;;;;5101111;28;20515;-71
2022/10/27 09:35:12;;;;;;;1.37;0.87;;;17.20;33.90;;;;;;5102513;28;20485;-73
2022/10/27 09:37:41;;;;;;;2.07;0.87;;;17.30;21.00;;;;;;5097929;28;20454;-73
2022/10/27 09:40:36;;;;;;;2.27;0.90;;;17.40;23.60;;;;;;5100008;28;20485;-69
2022/10/27 09:43:03;;;;;;;2.23;0.80;;;17.50;18.60;;;;;;5101806;28;20877;-70
2022/10/27 09:45:30;;;;;;;1.90;0.90;;;17.50;18.40;;;;;;5098501;28;20437;-71
2022/10/27 09:48:03;;;;;;;3.20;1.00;;;17.60;1.00;;;;;;5114573;28;20536;-70
2022/10/27 09:50:40;;;;;;;5.63;0.80;;;17.70;1.00;;;;;;5102270;28;20442;-70
2022/10/27 09:53:40;;;;;;;1.13;0.70;;;17.80;1.00;;;;;;5105096;28;20523;-70
2022/10/27 09:56:09;;;;;;;2.50;0.70;;;17.90;1.00;;;;;;5103544;28;20470;-70
2022/10/27 09:58:48;;;;;;;2.10;0.90;;;17.90;1.00;;;;;;5106865;28;20448;-71
2022/10/27 10:01:15;;;;;;;1.07;0.70;;;18.00;1.00;;;;;;5094951;28;20900;-71
2022/10/27 10:03:54;;;;;;;1.90;0.70;;;18.00;1.00;;;;;;5098053;28;20442;-71
2022/10/27 10:06:34;;;;;;;1.03;0.70;;;18.10;1.00;;;;;;5101044;28;20541;-71
2022/10/27 10:09:23;;;;;;;1.97;0.60;;;18.20;1.00;;;;;;5098005;28;20517;-72
2022/10/27 10:11:50;;;;;;;1.37;0.90;;;18.40;1.00;;;;;;5105055;28;20450;-71
2022/10/27 10:14:22;;;;;;;4.50;0.90;;;18.40;1.00;;;;;;5109563;28;20476;-71
2022/10/27 10:16:50;;;;;;;1.30;0.80;;;18.50;1.00;;;;;;5103796;28;20536;-71
2022/10/27 10:19:20;;;;;;;5.63;0.80;;;18.60;1.00;;;;;;5110568;28;20495;-71
2022/10/27 10:21:50;;;;;;;0.70;0.60;;;18.60;1.00;;;;;;5104742;28;20892;-71
2022/10/27 10:24:21;;;;;;;1.80;0.70;;;18.60;1.00;;;;;;5097368;28;20472;-71
2022/10/27 10:26:51;;;;;;;1.60;0.80;;;18.70;1.00;;;;;;5102181;28;20464;-71
2022/10/27 10:29:26;;;;;;;1.40;0.60;;;19.00;1.00;;;;;;5095441;28;20449;-71
2022/10/27 10:32:09;;;;;;;1.53;0.60;;;19.10;1.00;;;;;;5108231;28;20448;-72
2022/10/27 10:34:36;;;;;;;3.30;0.70;;;19.40;1.00;;;;;;5113337;28;20487;-71
2022/10/27 10:37:04;;;;;;;4.90;0.80;;;19.60;99.90;;;;;;5102232;28;20452;-72
2022/10/27 10:39:37;;;;;;;4.50;0.60;;;19.80;99.90;;;;;;5095866;28;20449;-72
2022/10/27 10:42:16;;;;;;;1.23;0.70;;;19.90;99.90;;;;;;5095957;28;20461;-72
2022/10/27 10:44:43;;;;;;;0.90;0.60;;;20.10;56.70;;;;;;5095541;28;20442;-71
2022/10/27 10:47:36;;;;;;;1.73;0.50;;;20.20;99.90;;;;;;5102907;28;20513;-72
2022/10/27 10:50:13;;;;;;;1.60;0.90;;;20.30;74.10;;;;;;5112255;28;20453;-71
2022/10/27 10:52:46;;;;;;;0.93;0.50;;;20.40;1.00;;;;;;5095351;28;20453;-71
2022/10/27 10:55:25;;;;;;;1.10;0.60;;;20.50;1.00;;;;;;5100150;28;20468;-71
2022/10/27 10:57:54;;;;;;;0.80;0.40;;;20.50;1.00;;;;;;5112072;28;20478;-72
2022/10/27 11:00:22;;;;;;;1.30;0.60;;;20.70;1.00;;;;;;5092272;28;20534;-71
2022/10/27 11:02:58;;;;;;;1.77;0.50;;;20.90;8.80;;;;;;5097610;28;20444;-71
2022/10/27 11:05:30;;;;;;;2.00;0.60;;;21.00;99.90;;;;;;5082795;28;21046;-71
2022/10/27 11:08:18;;;;;;;0.80;0.50;;;21.10;1.00;;;;;;5106098;28;20436;-72
2022/10/27 11:10:50;;;;;;;1.20;0.60;;;21.20;99.90;;;;;;5100111;28;21358;-70
2022/10/27 11:13:20;;;;;;;2.23;1.30;;;21.20;1.00;;;;;;5105360;28;20869;-70
2022/10/27 11:15:52;;;;;;;1.10;0.60;;;21.40;1.00;;;;;;5095142;28;20520;-71
2022/10/27 11:18:23;;;;;;;3.20;0.60;;;21.40;1.00;;;;;;5094740;28;20510;-71
2022/10/27 11:20:55;;;;;;;0.90;0.50;;;21.40;99.90;;;;;;5100533;28;20442;-72
2022/10/27 11:23:28;;;;;;;2.80;0.80;;;21.40;1.00;;;;;;5095488;28;20453;-71
2022/10/27 11:25:58;;;;;;;2.73;0.70;;;21.50;99.90;;;;;;5093706;28;20518;-71
2022/10/27 11:28:31;;;;;;;5.80;0.57;;;21.60;1.00;;;;;;5093732;28;20510;-71
2022/10/27 11:31:05;;;;;;;1.30;0.70;;;21.70;99.90;;;;;;5093534;28;20469;-71
2022/10/27 11:33:40;;;;;;;1.30;0.67;;;21.80;1.00;;;;;;5094113;28;20896;-71
2022/10/27 11:36:12;;;;;;;3.53;0.90;;;21.90;1.00;;;;;;5097478;28;20541;-71
2022/10/27 11:38:48;;;;;;;6.67;0.90;;;22.00;1.00;;;;;;5094406;28;20465;-72
2022/10/27 11:41:24;;;;;;;1.43;0.60;;;21.90;99.90;;;;;;5097690;28;20477;-72
2022/10/27 11:44:12;;;;;;;1.70;0.50;;;22.00;1.00;;;;;;5094900;28;20445;-72
2022/10/27 11:46:43;;;;;;;1.40;0.60;;;22.10;1.00;;;;;;5095741;28;20907;-72
2022/10/27 11:49:17;;;;;;;1.53;0.70;;;22.10;99.90;;;;;;5095033;28;20499;-73
2022/10/27 11:51:48;;;;;;;1.80;0.60;;;22.20;99.90;;;;;;5095767;28;20450;-72
2022/10/27 11:54:20;;;;;;;1.00;0.60;;;22.30;99.90;;;;;;5097086;28;20492;-72
2022/10/27 11:57:05;;;;;;;1.60;0.70;;;22.30;99.90;;;;;;5098654;28;20457;-73
2022/10/27 11:59:45;;;;;;;2.40;0.60;;;22.30;1.00;;;;;;5097970;28;20433;-72
2022/10/27 12:02:37;;;;;;;0.80;0.60;;;22.30;1.00;;;;;;5098343;28;20482;-71
2022/10/27 12:05:12;;;;;;;1.40;1.30;;;22.20;99.90;;;;;;5097863;28;20449;-71
2022/10/27 12:07:54;;;;;;;1.90;0.70;;;22.20;99.90;;;;;;5097779;28;20441;-72
2022/10/27 12:10:32;;;;;;;1.37;0.50;;;22.20;99.90;;;;;;5098114;28;20454;-72
2022/10/27 12:13:04;;;;;;;3.50;0.80;;;22.10;1.00;;;;;;5097875;28;21024;-72
2022/10/27 12:15:38;;;;;;;4.57;0.80;;;22.10;1.00;;;;;;5097724;28;20909;-72
2022/10/27 12:18:13;;;;;;;11.90;0.90;;;22.00;1.00;;;;;;5098451;28;20865;-71
2022/10/27 12:20:45;;;;;;;3.50;0.80;;;22.00;1.00;;;;;;5097900;28;20539;-72
2022/10/27 12:23:18;;;;;;;3.17;0.80;;;22.00;1.00;;;;;;5097289;28;20445;-71
2022/10/27 12:25:54;;;;;;;2.70;0.50;;;22.00;51.60;;;;;;5098120;28;21086;-71
2022/10/27 12:28:26;;;;;;;2.73;0.50;;;22.00;35.80;;;;;;5096009;28;20446;-71
2022/10/27 12:30:58;;;;;;;2.20;0.70;;;21.90;1.00;;;;;;5096396;28;20685;-71
2022/10/27 12:33:29;;;;;;;1.30;0.57;;;22.00;1.00;;;;;;5097569;28;20445;-72
2022/10/27 12:36:02;;;;;;;2.63;0.60;;;22.10;1.00;;;;;;5096617;28;20514;-71
2022/10/27 12:38:41;;;;;;;0.70;0.50;;;21.90;1.00;;;;;;5100324;28;20452;-71
2022/10/27 12:41:16;;;;;;;1.47;0.50;;;22.00;11.50;;;;;;5098504;28;20453;-70
2022/10/27 12:43:55;;;;;;;3.20;0.70;;;22.00;1.00;;;;;;5098653;28;20453;-71
2022/10/27 12:46:38;;;;;;;1.73;0.87;;;22.10;99.90;;;;;;5096949;28;20453;-71
2022/10/27 12:49:14;;;;;;;2.70;0.60;;;22.00;99.90;;;;;;5097311;28;20449;-70
2022/10/27 12:51:52;;;;;;;2.43;1.07;;;22.00;1.00;;;;;;5096145;28;20963;-71
2022/10/27 12:54:31;;;;;;;2.33;0.63;;;22.00;99.90;;;;;;5098573;28;20503;-71
2022/10/27 12:57:10;;;;;;;1.23;0.80;;;22.00;1.00;;;;;;5094905;28;20457;-70
2022/10/27 12:59:53;;;;;;;3.57;0.50;;;22.00;1.00;;;;;;5095159;28;20450;-70
2022/10/27 13:02:24;;;;;;;2.20;0.80;;;22.10;1.00;;;;;;5096696;28;20457;-71
2022/10/27 13:05:19;;;;;;;2.07;0.60;;;22.20;1.00;;;;;;5096424;28;20456;-70
2022/10/27 13:08:31;;;;;;;1.30;0.57;;;22.10;1.00;;;;;;5096750;28;20821;-71
2022/10/27 13:11:13;;;;;;;2.03;0.80;;;22.10;1.00;;;;;;5096699;28;20469;-72
2022/10/27 13:14:01;;;;;;;2.53;0.70;;;22.00;1.00;;;;;;5095335;28;20507;-71